createdAt,value
2023-05-16T00:00:09.182Z,100050.75
2023-05-16T00:03:13.101Z,100039.94
2023-05-16T00:06:16.984Z,100042.94
2023-05-16T00:09:19.393Z,100040.47
2023-05-16T00:12:22.874Z,100040.69
2023-05-16T00:15:25.425Z,100049.03
2023-05-16T00:18:28.757Z,100047.25
2023-05-16T00:21:31.975Z,100044.13
2023-05-16T00:24:34.747Z,100048.63
2023-05-16T00:27:37.120Z,100038.34
2023-05-16T00:30:40.514Z,100035.00
2023-05-16T00:33:43.113Z,100034.47
2023-05-16T00:36:45.784Z,100041.38
2023-05-16T00:39:48.822Z,100042.34
2023-05-16T00:42:51.261Z,100041.38
2023-05-16T00:45:54.299Z,100039.81
2023-05-16T00:48:57.122Z,100033.44
2023-05-16T00:51:59.916Z,100032.56
2023-05-16T00:55:03.904Z,100029.91
2023-05-16T00:58:07.037Z,100042.06
2023-05-16T01:01:10.000Z,100042.84
2023-05-16T01:04:12.822Z,100054.94
2023-05-16T01:07:15.440Z,100055.88
2023-05-16T01:10:18.132Z,100046.06
2023-05-16T01:13:58.391Z,100053.84
2023-05-16T01:17:19.234Z,100034.47
2023-05-16T01:20:52.181Z,100025.84
2023-05-16T01:24:09.730Z,100033.81
2023-05-16T01:27:13.844Z,100035.47
2023-05-16T01:30:18.616Z,100034.91
2023-05-16T01:33:21.635Z,100042.72
2023-05-16T01:36:48.280Z,100050.19
2023-05-16T01:40:06.397Z,100035.66
2023-05-16T01:43:15.066Z,100033.34
2023-05-16T01:46:27.288Z,100036.22
2023-05-16T01:49:50.831Z,100042.03
2023-05-16T01:53:09.467Z,100042.81
2023-05-16T01:56:16.407Z,100041.28
2023-05-16T01:59:21.286Z,100047.06
2023-05-16T02:02:24.102Z,100035.13
2023-05-16T02:05:26.952Z,100029.31
2023-05-16T02:08:30.124Z,100031.22
2023-05-16T02:11:32.589Z,100007.91
2023-05-16T02:14:35.269Z,100015.00
2023-05-16T02:17:37.876Z,100028.06
2023-05-16T02:20:40.702Z,100030.66
2023-05-16T02:23:43.363Z,100032.63
2023-05-16T02:26:45.776Z,100029.09
2023-05-16T02:29:48.584Z,100031.84
2023-05-16T02:32:51.160Z,100037.78
2023-05-16T02:35:54.301Z,100035.88
2023-05-16T02:38:57.197Z,100032.53
2023-05-16T02:42:00.063Z,100034.41
2023-05-16T02:45:03.162Z,100036.66
2023-05-16T02:48:05.957Z,100025.16
2023-05-16T02:51:08.566Z,100017.00
2023-05-16T02:54:11.247Z,100014.22
2023-05-16T02:57:13.750Z,100012.66
2023-05-16T03:00:18.520Z,100017.13
2023-05-16T03:03:21.430Z,100006.75
2023-05-16T03:06:24.452Z,99999.50
2023-05-16T03:09:27.644Z,100001.06
2023-05-16T03:12:30.479Z,100015.56
2023-05-16T03:15:33.167Z,100022.97
2023-05-16T03:18:35.581Z,100017.59
2023-05-16T03:21:38.386Z,100029.50
2023-05-16T03:24:42.115Z,100038.78
2023-05-16T03:27:47.179Z,100046.03
2023-05-16T03:30:49.927Z,100053.38
2023-05-16T03:33:52.298Z,100053.59
2023-05-16T03:36:55.041Z,100049.94
2023-05-16T03:39:57.782Z,100041.66
2023-05-16T03:43:00.937Z,100040.66
2023-05-16T03:46:04.251Z,100034.09
2023-05-16T03:49:06.742Z,100044.91
2023-05-16T03:52:09.382Z,100042.56
2023-05-16T03:55:14.490Z,100022.78
2023-05-16T03:58:17.126Z,100019.25
2023-05-16T04:01:19.806Z,100028.25
2023-05-16T04:04:22.223Z,100049.94
2023-05-16T04:07:25.079Z,100048.38
2023-05-16T04:10:28.341Z,100053.13
2023-05-16T04:13:31.106Z,100061.28
2023-05-16T04:16:33.792Z,100047.09
2023-05-16T04:19:36.271Z,100056.47
2023-05-16T04:22:38.997Z,100062.16
2023-05-16T04:25:42.410Z,100035.00
2023-05-16T04:28:44.857Z,100059.31
2023-05-16T04:31:48.039Z,100067.53
2023-05-16T04:34:53.378Z,100066.63
2023-05-16T04:37:56.257Z,100062.03
2023-05-16T04:40:59.077Z,100051.25
2023-05-16T04:44:05.380Z,100069.59
2023-05-16T04:47:08.076Z,100070.31
2023-05-16T04:50:10.893Z,100076.53
2023-05-16T04:53:15.120Z,100073.09
2023-05-16T04:56:17.805Z,100078.44
2023-05-16T04:59:21.232Z,100082.22
2023-05-16T05:02:23.689Z,100086.38
2023-05-16T05:05:26.749Z,100100.66
2023-05-16T05:08:29.588Z,100091.50
2023-05-16T05:11:32.677Z,100095.72
2023-05-16T05:14:35.601Z,100090.34
2023-05-16T05:17:38.342Z,100082.47
2023-05-16T05:20:40.805Z,100095.53
2023-05-16T05:23:43.329Z,100091.50
2023-05-16T05:26:45.783Z,100083.78
2023-05-16T05:29:48.305Z,100092.34
2023-05-16T05:32:51.194Z,100091.06
2023-05-16T05:35:54.220Z,100098.78
2023-05-16T05:38:56.780Z,100099.19
2023-05-16T05:41:59.343Z,100097.53
2023-05-16T05:45:02.305Z,100092.34
2023-05-16T05:48:05.112Z,100102.25
2023-05-16T05:51:07.569Z,100104.75
2023-05-16T05:54:10.177Z,100088.56
2023-05-16T05:57:12.734Z,100091.34
2023-05-16T06:00:15.384Z,100099.63
2023-05-16T06:03:18.472Z,100113.31
2023-05-16T06:06:21.396Z,100099.72
2023-05-16T06:09:23.788Z,100106.19
2023-05-16T06:12:26.306Z,100108.50
2023-05-16T06:15:29.012Z,100095.09
2023-05-16T06:18:31.896Z,100099.19
2023-05-16T06:21:34.532Z,100082.75
2023-05-16T06:24:37.109Z,100084.31
2023-05-16T06:27:39.548Z,100094.34
2023-05-16T06:30:42.091Z,100088.31
2023-05-16T06:33:44.523Z,100081.13
2023-05-16T06:36:47.072Z,100073.97
2023-05-16T06:39:49.580Z,100093.16
2023-05-16T06:42:52.135Z,100085.53
2023-05-16T06:45:55.001Z,100084.25
2023-05-16T06:48:57.647Z,100086.25
2023-05-16T06:52:00.267Z,100092.03
2023-05-16T06:55:02.899Z,100100.19
2023-05-16T06:58:05.397Z,100098.38
2023-05-16T07:01:08.098Z,100095.94
2023-05-16T07:04:10.798Z,100104.00
2023-05-16T07:07:13.817Z,100108.91
2023-05-16T07:10:16.964Z,100112.38
2023-05-16T07:13:20.160Z,100108.22
2023-05-16T07:16:22.903Z,100106.16
2023-05-16T07:19:26.085Z,100113.16
2023-05-16T07:22:28.802Z,100115.25
2023-05-16T07:25:32.229Z,100117.69
2023-05-16T07:28:36.023Z,100109.44
2023-05-16T07:31:38.849Z,100112.13
2023-05-16T07:34:41.351Z,100105.00
2023-05-16T07:37:43.993Z,100108.41
2023-05-16T07:40:46.543Z,100115.31
2023-05-16T07:43:48.965Z,100116.88
2023-05-16T07:46:51.409Z,100118.63
2023-05-16T07:49:53.975Z,100137.41
2023-05-16T07:52:57.332Z,100136.63
2023-05-16T07:56:00.326Z,100139.06
2023-05-16T07:59:03.441Z,100149.09
2023-05-16T08:02:06.133Z,100146.94
2023-05-16T08:05:09.671Z,100146.25
2023-05-16T08:08:12.268Z,100146.00
2023-05-16T08:11:16.171Z,100149.03
2023-05-16T08:14:18.993Z,100144.53
2023-05-16T08:17:21.720Z,100154.81
2023-05-16T08:20:24.759Z,100150.13
2023-05-16T08:23:27.297Z,100145.34
2023-05-16T08:26:29.829Z,100142.41
2023-05-16T08:29:32.745Z,100139.84
2023-05-16T08:32:35.249Z,100152.38
2023-05-16T08:35:37.968Z,100159.09
2023-05-16T08:38:40.456Z,100158.25
2023-05-16T08:41:43.114Z,100144.91
2023-05-16T08:44:45.671Z,100138.72
2023-05-16T08:47:50.537Z,100138.84
2023-05-16T08:50:53.351Z,100136.47
2023-05-16T08:54:15.740Z,100127.69
2023-05-16T08:57:20.222Z,100130.44
2023-05-16T09:00:23.559Z,100141.84
2023-05-16T09:03:28.210Z,100128.78
2023-05-16T09:06:31.295Z,100112.31
2023-05-16T09:09:34.058Z,100116.38
2023-05-16T09:12:36.864Z,100112.97
2023-05-16T09:15:39.428Z,100109.75
2023-05-16T09:18:44.861Z,100104.06
2023-05-16T09:21:47.678Z,100098.78
2023-05-16T09:24:50.446Z,100103.47
2023-05-16T09:27:57.232Z,100100.34
2023-05-16T09:31:00.209Z,100097.31
2023-05-16T09:34:02.758Z,100095.88
2023-05-16T09:37:05.662Z,100086.47
2023-05-16T09:40:10.573Z,100082.13
2023-05-16T09:43:17.326Z,100084.66
2023-05-16T09:46:26.232Z,100078.84
2023-05-16T09:49:29.047Z,100082.56
2023-05-16T09:52:31.557Z,100079.00
2023-05-16T09:55:34.133Z,100074.84
2023-05-16T09:58:41.954Z,100070.03
2023-05-16T10:01:45.084Z,100071.94
2023-05-16T10:04:47.630Z,100065.50
2023-05-16T10:07:52.040Z,100063.22
2023-05-16T10:10:56.889Z,100059.81
2023-05-16T10:13:59.567Z,100048.13
2023-05-16T10:17:04.122Z,100053.50
2023-05-16T10:20:09.366Z,100046.81
2023-05-16T10:23:17.645Z,100043.72
2023-05-16T10:26:22.024Z,100035.91
2023-05-16T10:29:24.987Z,100037.38
2023-05-16T10:32:28.713Z,100026.06
2023-05-16T10:35:32.990Z,100033.09
2023-05-16T10:38:37.014Z,100033.09
2023-05-16T10:41:39.753Z,100030.47
2023-05-16T10:44:48.553Z,100025.44
2023-05-16T10:48:04.774Z,100027.72
2023-05-16T10:51:22.569Z,100032.25
2023-05-16T10:54:39.996Z,100038.09
2023-05-16T10:57:44.870Z,100040.44
2023-05-16T11:00:48.044Z,100037.97
2023-05-16T11:04:02.753Z,100037.97
2023-05-16T11:07:07.378Z,100032.88
2023-05-16T11:10:16.825Z,100032.06
2023-05-16T11:13:24.807Z,100033.13
2023-05-16T11:16:28.966Z,100033.75
2023-05-16T11:20:04.437Z,100036.09
2023-05-16T11:23:18.912Z,100032.63
2023-05-16T11:26:21.858Z,100030.78
2023-05-16T11:29:24.958Z,100028.66
2023-05-16T11:32:27.826Z,100029.16
2023-05-16T11:35:30.885Z,100025.66
2023-05-16T11:38:34.353Z,100023.34
2023-05-16T11:41:37.022Z,100010.88
2023-05-16T11:44:41.118Z,100007.19
2023-05-16T11:47:45.203Z,100000.91
2023-05-16T11:50:47.794Z,99995.16
2023-05-16T11:53:50.473Z,99994.56
2023-05-16T11:56:53.801Z,100005.50
2023-05-16T11:59:56.424Z,99997.44
2023-05-16T12:03:04.997Z,100005.56
2023-05-16T12:06:08.783Z,100001.69
2023-05-16T12:09:18.207Z,100008.69
2023-05-16T12:12:21.812Z,99996.53
2023-05-16T12:15:24.575Z,99987.50
2023-05-16T12:18:27.349Z,99990.97
2023-05-16T12:21:29.969Z,99981.47
2023-05-16T12:24:32.607Z,99982.28
2023-05-16T12:27:35.237Z,99976.91
2023-05-16T12:30:41.916Z,99990.38
2023-05-16T12:33:46.091Z,99984.28
2023-05-16T12:36:52.897Z,99966.56
2023-05-16T12:40:00.655Z,99950.44
2023-05-16T12:43:03.602Z,99949.31
2023-05-16T12:46:11.564Z,99950.31
2023-05-16T12:49:14.623Z,99966.50
2023-05-16T12:52:21.781Z,99970.66
2023-05-16T12:55:24.476Z,99966.94
2023-05-16T12:58:27.603Z,99975.09
2023-05-16T13:01:30.658Z,99973.66
2023-05-16T13:04:33.185Z,99971.75
2023-05-16T13:07:36.426Z,99975.16
2023-05-16T13:10:39.063Z,99961.69
2023-05-16T13:13:41.707Z,99937.78
2023-05-16T13:16:45.098Z,99915.63
2023-05-16T13:19:48.913Z,99909.59
2023-05-16T13:22:51.737Z,99897.47
2023-05-16T13:25:54.313Z,99894.06
2023-05-16T13:28:56.816Z,99900.22
2023-05-16T13:31:59.538Z,99904.84
2023-05-16T13:35:02.078Z,99905.31
2023-05-16T13:38:04.608Z,99908.81
2023-05-16T13:41:07.213Z,99909.19
2023-05-16T13:44:10.394Z,99908.03
2023-05-16T13:47:13.000Z,99903.56
2023-05-16T13:50:15.613Z,99892.91
2023-05-16T13:53:18.122Z,99912.53
2023-05-16T13:56:20.766Z,99908.38
2023-05-16T13:59:41.099Z,99907.13
2023-05-16T14:02:46.385Z,99904.56
2023-05-16T14:05:49.718Z,99903.78
2023-05-16T14:08:52.315Z,99910.38
2023-05-16T14:11:54.766Z,99910.78
2023-05-16T14:14:57.364Z,99892.00
2023-05-16T14:18:00.132Z,99888.97
2023-05-16T14:21:03.077Z,99889.44
2023-05-16T14:24:06.349Z,99882.53
2023-05-16T14:27:08.972Z,99873.22
2023-05-16T14:30:11.920Z,99867.84
2023-05-16T14:33:14.542Z,99863.59
2023-05-16T14:36:17.135Z,99859.09
2023-05-16T14:39:19.784Z,99861.00
2023-05-16T14:42:22.301Z,99860.88
2023-05-16T14:45:25.092Z,99860.84
2023-05-16T14:48:27.771Z,99859.22
2023-05-16T14:51:31.793Z,99858.44
2023-05-16T14:54:34.482Z,99853.84
2023-05-16T14:57:37.513Z,99860.25
2023-05-16T15:00:40.021Z,99863.31
2023-05-16T15:03:54.674Z,99853.31
2023-05-16T15:06:58.865Z,99836.44
2023-05-16T15:10:01.986Z,99838.09
2023-05-16T15:13:04.600Z,99823.94
2023-05-16T15:16:07.916Z,99822.03
2023-05-16T15:19:10.929Z,99808.50
2023-05-16T15:22:13.755Z,99817.00
2023-05-16T15:25:16.441Z,99803.78
2023-05-16T15:28:21.765Z,99804.09
2023-05-16T15:31:25.617Z,99808.75
2023-05-16T15:34:28.733Z,99803.06
2023-05-16T15:37:31.247Z,99804.94
